Time;durP1;ratioP1;P1;durP2;ratioP2;P2;SDS_P1;SDS_P2;PMS_P1;PMS_P2;Temp;Humidity;BMP_temperature;BMP_pressure;BME280_temperature;BME280_humidity;BME280_pressure;Samples;Min_cycle;Max_cycle;Signal;HPM_P1;HPM_P2
2023/08/24 00:01:00;;;;;;;1.80;1.40;;;;;;;;;;5107583;27;41373;-72
2023/08/24 00:03:28;;;;;;;4.40;1.30;;;;;;;;;;5107336;27;42182;-72
2023/08/24 00:05:56;;;;;;;1.95;1.30;;;;;;;;;;5107829;27;41929;-72
2023/08/24 00:08:25;;;;;;;2.00;1.17;;;;;;;;;;5106655;27;41369;-73
2023/08/24 00:10:54;;;;;;;1.98;1.13;;;;;;;;;;5107799;27;43092;-73
2023/08/24 00:13:22;;;;;;;1.42;1.00;;;;;;;;;;5107281;27;40926;-72
2023/08/24 00:15:50;;;;;;;2.25;1.05;;;;;;;;;;5107410;27;42391;-73
2023/08/24 00:18:21;;;;;;;2.55;1.30;;;;;;;;;;5107331;27;40375;-73
2023/08/24 00:20:49;;;;;;;1.88;1.10;;;;;;;;;;5106383;27;42169;-73
2023/08/24 00:23:18;;;;;;;1.00;0.95;;;;;;;;;;5106460;27;40530;-73
2023/08/24 00:25:47;;;;;;;1.70;1.00;;;;;;;;;;5106013;28;41356;-73
2023/08/24 00:28:15;;;;;;;2.05;1.20;;;;;;;;;;5106883;27;42552;-73
2023/08/24 00:30:43;;;;;;;1.77;1.00;;;;;;;;;;5106877;28;41518;-73
2023/08/24 00:33:12;;;;;;;2.60;1.10;;;;;;;;;;5106523;28;40692;-73
2023/08/24 00:35:40;;;;;;;1.27;0.90;;;;;;;;;;5106274;28;41506;-73
2023/08/24 00:38:08;;;;;;;1.73;1.13;;;;;;;;;;5106871;27;41404;-73
2023/08/24 00:40:36;;;;;;;2.38;1.13;;;;;;;;;;5105574;28;41522;-73
2023/08/24 00:43:05;;;;;;;2.13;1.02;;;;;;;;;;5106060;28;42656;-73
2023/08/24 00:45:34;;;;;;;1.25;1.10;;;;;;;;;;5106730;28;40289;-72
2023/08/24 00:48:02;;;;;;;1.52;1.00;;;;;;;;;;5105825;28;41762;-73
2023/08/24 00:50:30;;;;;;;1.30;1.00;;;;;;;;;;5104758;27;40745;-73
2023/08/24 00:52:58;;;;;;;1.42;1.00;;;;;;;;;;5105460;28;40136;-73
2023/08/24 00:55:26;;;;;;;1.10;0.85;;;;;;;;;;5106805;28;41757;-73
2023/08/24 00:57:54;;;;;;;1.70;0.98;;;;;;;;;;5108876;27;42089;-73
2023/08/24 01:00:23;;;;;;;0.85;0.80;;;;;;;;;;5111153;28;40319;-73
2023/08/24 01:02:52;;;;;;;1.58;1.10;;;;;;;;;;5108887;28;42260;-73
2023/08/24 01:05:20;;;;;;;2.03;1.00;;;;;;;;;;5108290;28;39145;-73
2023/08/24 01:07:48;;;;;;;1.70;1.17;;;;;;;;;;5110517;28;42607;-73
2023/08/24 01:10:16;;;;;;;1.00;0.82;;;;;;;;;;5110472;28;42870;-73
2023/08/24 01:12:49;;;;;;;1.13;1.02;;;;;;;;;;5109453;28;40673;-73
2023/08/24 01:15:18;;;;;;;1.27;1.17;;;;;;;;;;5107992;28;41689;-73
2023/08/24 01:17:47;;;;;;;1.38;0.95;;;;;;;;;;5109105;28;42087;-73
2023/08/24 01:20:16;;;;;;;2.05;1.00;;;;;;;;;;5110540;28;42041;-73
2023/08/24 01:22:47;;;;;;;2.22;1.00;;;;;;;;;;5109620;28;42309;-73
2023/08/24 01:25:17;;;;;;;1.45;0.95;;;;;;;;;;5108240;28;39788;-73
2023/08/24 01:27:46;;;;;;;1.00;0.80;;;;;;;;;;5109957;28;42318;-72
2023/08/24 01:30:14;;;;;;;2.22;1.42;;;;;;;;;;5110188;28;43754;-73
2023/08/24 01:32:43;;;;;;;1.00;0.77;;;;;;;;;;5107773;28;39448;-73
2023/08/24 01:35:11;;;;;;;1.25;1.00;;;;;;;;;;5111064;27;42666;-73
2023/08/24 01:37:39;;;;;;;1.00;0.90;;;;;;;;;;5108523;27;41238;-73
2023/08/24 01:40:09;;;;;;;1.05;0.70;;;;;;;;;;5108172;27;38920;-73
2023/08/24 01:42:38;;;;;;;1.42;0.80;;;;;;;;;;5109173;28;42361;-73
2023/08/24 01:45:08;;;;;;;1.00;0.90;;;;;;;;;;5110343;28;42115;-72
2023/08/24 01:47:36;;;;;;;1.33;0.80;;;;;;;;;;5109006;28;42980;-72
2023/08/24 01:50:04;;;;;;;0.73;0.73;;;;;;;;;;5109914;28;41773;-73
2023/08/24 01:52:33;;;;;;;0.70;0.70;;;;;;;;;;5109368;27;40368;-73
2023/08/24 01:55:03;;;;;;;1.27;1.02;;;;;;;;;;5108591;28;40917;-72
2023/08/24 01:57:31;;;;;;;2.05;0.88;;;;;;;;;;5109400;28;42144;-73
2023/08/24 01:59:59;;;;;;;2.22;1.27;;;;;;;;;;5109534;28;41057;-72
2023/08/24 02:02:29;;;;;;;0.95;0.80;;;;;;;;;;5107872;27;41929;-73
2023/08/24 02:04:57;;;;;;;0.85;0.85;;;;;;;;;;5108810;27;40942;-73
2023/08/24 02:07:25;;;;;;;1.75;0.82;;;;;;;;;;5108244;28;40486;-73
2023/08/24 02:09:53;;;;;;;1.35;0.80;;;;;;;;;;5109690;28;42252;-72
2023/08/24 02:12:22;;;;;;;1.55;0.95;;;;;;;;;;5109727;27;41006;-72
2023/08/24 02:14:50;;;;;;;1.67;1.08;;;;;;;;;;5106161;27;40399;-73
2023/08/24 02:17:18;;;;;;;1.23;1.13;;;;;;;;;;5109555;27;42227;-73
2023/08/24 02:19:47;;;;;;;2.05;1.33;;;;;;;;;;5109329;28;40329;-72
2023/08/24 02:22:15;;;;;;;0.93;0.70;;;;;;;;;;5106233;28;41267;-73
2023/08/24 02:24:43;;;;;;;0.80;0.80;;;;;;;;;;5108143;27;42386;-73
2023/08/24 02:27:11;;;;;;;0.90;0.77;;;;;;;;;;5109253;27;39067;-72
2023/08/24 02:29:40;;;;;;;0.90;0.75;;;;;;;;;;5108049;27;42254;-73
2023/08/24 02:32:08;;;;;;;1.92;0.82;;;;;;;;;;5109467;27;40374;-72
2023/08/24 02:34:36;;;;;;;2.22;1.63;;;;;;;;;;5107540;28;40182;-73
2023/08/24 02:37:05;;;;;;;0.90;0.73;;;;;;;;;;5108823;28;42173;-73
2023/08/24 02:39:33;;;;;;;1.20;0.90;;;;;;;;;;5108872;27;40272;-72
2023/08/24 02:42:01;;;;;;;1.25;1.02;;;;;;;;;;5108859;28;41439;-73
2023/08/24 02:44:29;;;;;;;0.80;0.70;;;;;;;;;;5106831;28;41815;-73
2023/08/24 02:46:57;;;;;;;0.77;0.70;;;;;;;;;;5109175;28;40902;-73
2023/08/24 02:49:25;;;;;;;0.75;0.60;;;;;;;;;;5106922;27;40157;-73
2023/08/24 02:51:53;;;;;;;1.08;0.70;;;;;;;;;;5108993;27;42344;-72
2023/08/24 02:54:23;;;;;;;1.02;0.70;;;;;;;;;;5107361;28;41274;-72
2023/08/24 02:56:51;;;;;;;1.80;0.80;;;;;;;;;;5108142;28;41494;-73
2023/08/24 02:59:19;;;;;;;0.65;0.65;;;;;;;;;;5108559;28;41322;-73
2023/08/24 03:01:48;;;;;;;1.63;0.80;;;;;;;;;;5124223;27;41014;-72
2023/08/24 03:04:16;;;;;;;1.25;0.77;;;;;;;;;;5106552;27;41519;-73
2023/08/24 03:06:44;;;;;;;1.85;1.40;;;;;;;;;;5106869;28;41127;-73
2023/08/24 03:09:13;;;;;;;0.82;0.77;;;;;;;;;;5107382;28;40696;-72
2023/08/24 03:11:42;;;;;;;1.08;0.70;;;;;;;;;;5108016;28;41832;-73
2023/08/24 03:14:11;;;;;;;0.95;0.90;;;;;;;;;;5106808;28;40141;-73
2023/08/24 03:16:39;;;;;;;1.02;0.88;;;;;;;;;;5108075;28;42080;-73
2023/08/24 03:19:08;;;;;;;1.52;0.70;;;;;;;;;;5106858;28;41184;-73
2023/08/24 03:21:35;;;;;;;0.60;0.60;;;;;;;;;;5107448;28;41210;-73
2023/08/24 03:24:05;;;;;;;5.40;0.70;;;;;;;;;;5105905;27;42059;-73
2023/08/24 03:26:33;;;;;;;1.23;0.80;;;;;;;;;;5107705;28;42231;-73
2023/08/24 03:29:03;;;;;;;0.60;0.60;;;;;;;;;;5108311;28;41671;-73
2023/08/24 03:31:34;;;;;;;0.63;0.60;;;;;;;;;;5106944;28;42134;-72
2023/08/24 03:34:03;;;;;;;1.33;0.85;;;;;;;;;;5107982;27;39874;-72
2023/08/24 03:36:31;;;;;;;1.63;0.80;;;;;;;;;;5107252;28;42873;-73
2023/08/24 03:38:59;;;;;;;1.08;0.80;;;;;;;;;;5107544;27;41084;-73
2023/08/24 03:41:29;;;;;;;2.53;0.82;;;;;;;;;;5109014;27;41864;-73
2023/08/24 03:43:58;;;;;;;1.13;0.80;;;;;;;;;;5108675;27;41754;-73
2023/08/24 03:46:28;;;;;;;0.98;0.70;;;;;;;;;;5106814;28;41376;-73
2023/08/24 03:48:56;;;;;;;1.20;1.10;;;;;;;;;;5107847;28;42706;-73
2023/08/24 03:51:24;;;;;;;1.45;1.35;;;;;;;;;;5107347;28;41829;-73
2023/08/24 03:53:52;;;;;;;0.90;0.80;;;;;;;;;;5105924;27;40401;-73
2023/08/24 03:56:20;;;;;;;0.70;0.70;;;;;;;;;;5107857;27;42140;-73
2023/08/24 03:58:49;;;;;;;1.23;0.90;;;;;;;;;;5106090;28;40827;-73
2023/08/24 04:01:17;;;;;;;1.02;0.75;;;;;;;;;;5105374;27;40715;-72
2023/08/24 04:03:46;;;;;;;1.23;0.80;;;;;;;;;;5105949;27;41095;-73
2023/08/24 04:06:14;;;;;;;1.30;0.90;;;;;;;;;;5106953;27;41021;-72
2023/08/24 04:08:43;;;;;;;0.70;0.70;;;;;;;;;;5107397;28;41868;-73
2023/08/24 04:11:11;;;;;;;1.30;0.90;;;;;;;;;;5105996;28;41520;-72
2023/08/24 04:13:39;;;;;;;0.88;0.80;;;;;;;;;;5104889;28;41346;-73
2023/08/24 04:16:07;;;;;;;1.33;1.20;;;;;;;;;;5106587;27;41137;-72
2023/08/24 04:18:35;;;;;;;0.85;0.85;;;;;;;;;;5106040;27;32605;-73
2023/08/24 04:21:05;;;;;;;1.13;1.02;;;;;;;;;;5103125;28;41396;-73
2023/08/24 04:23:33;;;;;;;1.75;1.13;;;;;;;;;;5106678;27;43566;-72
2023/08/24 04:26:04;;;;;;;0.90;0.80;;;;;;;;;;5107315;27;41978;-73
2023/08/24 04:28:32;;;;;;;1.20;1.00;;;;;;;;;;5106079;27;42614;-72
2023/08/24 04:31:00;;;;;;;0.93;0.88;;;;;;;;;;5106456;27;43037;-73
2023/08/24 04:33:28;;;;;;;0.82;0.82;;;;;;;;;;5110530;27;41132;-72
2023/08/24 04:35:56;;;;;;;1.10;0.90;;;;;;;;;;5118002;27;41445;-72
2023/08/24 04:38:26;;;;;;;1.15;0.70;;;;;;;;;;5111551;27;42675;-73
2023/08/24 04:40:55;;;;;;;1.10;1.00;;;;;;;;;;5110693;27;41531;-73
2023/08/24 04:43:24;;;;;;;1.10;1.00;;;;;;;;;;5109525;27;42754;-73
2023/08/24 04:45:52;;;;;;;0.68;0.68;;;;;;;;;;5110849;27;40682;-73
2023/08/24 04:48:20;;;;;;;1.33;1.00;;;;;;;;;;5110358;27;41602;-72
2023/08/24 04:50:49;;;;;;;0.65;0.65;;;;;;;;;;5110000;27;42986;-73
2023/08/24 04:53:17;;;;;;;1.13;1.00;;;;;;;;;;5110192;27;41475;-73
2023/08/24 04:55:46;;;;;;;1.10;1.00;;;;;;;;;;5109350;27;42717;-72
2023/08/24 04:58:14;;;;;;;0.82;0.65;;;;;;;;;;5110931;27;41849;-73
2023/08/24 05:00:42;;;;;;;0.80;0.80;;;;;;;;;;5110972;27;41008;-72
2023/08/24 05:03:10;;;;;;;0.90;0.90;;;;;;;;;;5110642;27;41715;-73
2023/08/24 05:05:38;;;;;;;0.90;0.85;;;;;;;;;;5109819;27;42269;-72
2023/08/24 05:08:09;;;;;;;1.42;0.88;;;;;;;;;;5110611;27;41444;-73
2023/08/24 05:10:40;;;;;;;0.68;0.68;;;;;;;;;;5108803;27;42582;-72
2023/08/24 05:13:09;;;;;;;1.90;1.45;;;;;;;;;;5110039;27;41342;-72
2023/08/24 05:15:37;;;;;;;1.05;0.93;;;;;;;;;;5108713;27;41863;-72
2023/08/24 05:18:05;;;;;;;2.30;1.40;;;;;;;;;;5108571;27;43112;-73
2023/08/24 05:20:33;;;;;;;1.33;1.00;;;;;;;;;;5108966;27;41948;-73
2023/08/24 05:23:01;;;;;;;0.80;0.80;;;;;;;;;;5113079;27;41729;-73
2023/08/24 05:25:34;;;;;;;1.42;1.15;;;;;;;;;;5113276;28;40886;-72
2023/08/24 05:28:03;;;;;;;0.85;0.85;;;;;;;;;;5112155;27;41817;-72
2023/08/24 05:30:32;;;;;;;1.10;0.90;;;;;;;;;;5109174;27;42426;-72
2023/08/24 05:33:00;;;;;;;0.90;0.70;;;;;;;;;;5108783;27;42026;-73
2023/08/24 05:35:28;;;;;;;1.25;1.15;;;;;;;;;;5108623;27;42642;-72
2023/08/24 05:37:56;;;;;;;1.35;1.00;;;;;;;;;;5109113;27;42831;-72
2023/08/24 05:40:24;;;;;;;2.15;1.10;;;;;;;;;;5109920;27;42189;-72
2023/08/24 05:42:53;;;;;;;1.00;0.80;;;;;;;;;;5109215;27;42603;-73
2023/08/24 05:45:23;;;;;;;1.13;0.98;;;;;;;;;;5113463;27;43147;-73
2023/08/24 05:47:55;;;;;;;1.30;1.13;;;;;;;;;;5103419;27;42582;-72
2023/08/24 05:50:23;;;;;;;1.05;0.95;;;;;;;;;;5109915;27;41842;-72
2023/08/24 05:52:51;;;;;;;1.33;1.00;;;;;;;;;;5108968;27;41383;-72
2023/08/24 05:55:19;;;;;;;1.00;0.90;;;;;;;;;;5109598;27;41798;-72
2023/08/24 05:57:47;;;;;;;1.95;1.48;;;;;;;;;;5110389;27;42549;-72
2023/08/24 06:00:16;;;;;;;0.73;0.73;;;;;;;;;;5120845;27;40722;-72
2023/08/24 06:02:44;;;;;;;1.17;1.05;;;;;;;;;;5113960;27;41778;-72
2023/08/24 06:05:14;;;;;;;1.17;1.08;;;;;;;;;;5115112;27;42043;-72
2023/08/24 06:07:42;;;;;;;0.80;0.80;;;;;;;;;;5119684;27;42197;-73
2023/08/24 06:10:10;;;;;;;0.60;0.60;;;;;;;;;;5114459;27;41426;-72
2023/08/24 06:12:38;;;;;;;0.80;0.75;;;;;;;;;;5112664;27;40983;-73
2023/08/24 06:15:09;;;;;;;0.82;0.70;;;;;;;;;;5113688;27;42341;-72
2023/08/24 06:17:37;;;;;;;1.10;1.00;;;;;;;;;;5113960;27;41552;-72
2023/08/24 06:20:06;;;;;;;1.60;1.30;;;;;;;;;;5115723;27;41311;-73
2023/08/24 06:22:35;;;;;;;1.30;1.20;;;;;;;;;;5114766;27;40822;-72
2023/08/24 06:25:05;;;;;;;1.02;0.98;;;;;;;;;;5111122;27;42110;-72
2023/08/24 06:27:33;;;;;;;1.92;1.48;;;;;;;;;;5110052;27;41738;-72
2023/08/24 06:30:01;;;;;;;2.92;1.38;;;;;;;;;;5114756;27;42356;-72
2023/08/24 06:32:29;;;;;;;0.90;0.85;;;;;;;;;;5121547;27;41331;-73
2023/08/24 06:34:58;;;;;;;0.88;0.85;;;;;;;;;;5108192;27;42256;-72
2023/08/24 06:37:26;;;;;;;1.10;1.00;;;;;;;;;;5108722;27;42107;-72
2023/08/24 06:39:55;;;;;;;1.00;0.80;;;;;;;;;;5107785;27;40985;-73
2023/08/24 06:42:23;;;;;;;1.27;0.80;;;;;;;;;;5107528;27;41252;-73
2023/08/24 06:44:51;;;;;;;0.60;0.60;;;;;;;;;;5108099;27;42751;-72
2023/08/24 06:47:19;;;;;;;1.52;1.00;;;;;;;;;;5109162;27;42847;-73
2023/08/24 06:49:47;;;;;;;1.08;0.80;;;;;;;;;;5110114;27;41614;-72
2023/08/24 06:52:15;;;;;;;0.75;0.73;;;;;;;;;;5111748;27;41019;-69
2023/08/24 06:54:43;;;;;;;15.30;9.65;;;;;;;;;;5111099;27;41542;-70
2023/08/24 06:57:12;;;;;;;11.15;9.93;;;;;;;;;;5112503;27;41995;-68
2023/08/24 06:59:40;;;;;;;13.95;10.80;;;;;;;;;;5106862;27;41924;-68
2023/08/24 07:02:08;;;;;;;14.43;10.65;;;;;;;;;;5106021;27;41668;-69
2023/08/24 07:04:36;;;;;;;13.63;11.20;;;;;;;;;;5106034;28;41997;-68
2023/08/24 07:07:04;;;;;;;16.23;11.90;;;;;;;;;;5104672;28;41374;-68
2023/08/24 07:09:33;;;;;;;12.70;11.15;;;;;;;;;;5106250;27;41783;-68
2023/08/24 07:12:01;;;;;;;16.67;12.32;;;;;;;;;;5108456;27;42086;-68
2023/08/24 07:14:30;;;;;;;14.77;10.93;;;;;;;;;;5107008;27;41281;-68
2023/08/24 07:16:58;;;;;;;16.58;12.50;;;;;;;;;;5107340;27;42341;-68
2023/08/24 07:19:26;;;;;;;20.27;12.15;;;;;;;;;;5107568;27;41342;-68
2023/08/24 07:21:54;;;;;;;15.38;11.93;;;;;;;;;;5107565;27;41731;-67
2023/08/24 07:24:26;;;;;;;19.38;12.23;;;;;;;;;;5106759;27;41752;-68
2023/08/24 07:27:11;;;;;;;16.98;12.30;;;;;;;;;;5114770;27;40941;-67
2023/08/24 07:29:40;;;;;;;18.52;12.40;;;;;;;;;;5110736;27;41854;-67
2023/08/24 07:32:08;;;;;;;16.73;12.68;;;;;;;;;;5110180;27;42156;-68
2023/08/24 07:34:36;;;;;;;17.98;13.68;;;;;;;;;;5110290;27;41642;-66
2023/08/24 07:37:04;;;;;;;17.30;13.00;;;;;;;;;;5110819;27;43106;-67
2023/08/24 07:39:33;;;;;;;13.82;12.32;;;;;;;;;;5112281;27;41477;-67
2023/08/24 07:42:01;;;;;;;17.63;13.80;;;;;;;;;;5108721;27;42630;-67
2023/08/24 07:44:29;;;;;;;26.25;13.27;;;;;;;;;;5105933;27;42595;-67
2023/08/24 07:46:58;;;;;;;17.20;13.40;;;;;;;;;;5108702;27;41086;-67
2023/08/24 07:49:26;;;;;;;14.48;12.90;;;;;;;;;;5119405;27;42169;-67
2023/08/24 07:51:55;;;;;;;15.65;12.98;;;;;;;;;;5116220;27;42477;-67
2023/08/24 07:54:23;;;;;;;15.70;12.80;;;;;;;;;;5107492;27;41020;-67
2023/08/24 07:56:51;;;;;;;17.73;12.60;;;;;;;;;;5107799;27;41180;-66
2023/08/24 07:59:19;;;;;;;17.48;12.40;;;;;;;;;;5107331;27;41167;-67
2023/08/24 08:01:47;;;;;;;19.85;13.07;;;;;;;;;;5107310;27;44263;-67
2023/08/24 08:04:17;;;;;;;21.95;12.90;;;;;;;;;;5106716;27;42489;-67
2023/08/24 08:06:47;;;;;;;14.85;12.48;;;;;;;;;;5106583;27;40252;-67
2023/08/24 08:09:16;;;;;;;17.98;13.32;;;;;;;;;;5107599;27;41540;-67
2023/08/24 08:11:45;;;;;;;19.25;14.18;;;;;;;;;;5106784;27;43047;-67
2023/08/24 08:14:14;;;;;;;17.50;13.35;;;;;;;;;;5106057;27;41123;-67
2023/08/24 08:16:42;;;;;;;28.23;13.52;;;;;;;;;;5105644;27;41690;-67
2023/08/24 08:19:10;;;;;;;18.42;13.23;;;;;;;;;;5106908;27;43146;-67
2023/08/24 08:21:39;;;;;;;19.10;13.23;;;;;;;;;;5105350;27;41868;-67
2023/08/24 08:24:07;;;;;;;23.15;12.60;;;;;;;;;;5106296;27;42180;-68
2023/08/24 08:26:35;;;;;;;16.33;11.68;;;;;;;;;;5105999;27;42242;-68
2023/08/24 08:29:03;;;;;;;18.38;11.88;;;;;;;;;;5107680;27;41638;-72
2023/08/24 08:31:31;;;;;;;16.73;10.82;;;;;;;;;;5106330;27;43165;-70
2023/08/24 08:33:59;;;;;;;16.92;11.65;;;;;;;;;;5113113;27;41770;-70
2023/08/24 08:36:27;;;;;;;16.42;11.95;;;;;;;;;;5105601;28;41754;-70
2023/08/24 08:38:57;;;;;;;16.50;11.55;;;;;;;;;;5109080;27;41783;-70
2023/08/24 08:41:25;;;;;;;16.83;11.40;;;;;;;;;;5109706;27;41203;-70
2023/08/24 08:43:55;;;;;;;15.77;11.68;;;;;;;;;;5113232;27;42223;-70
2023/08/24 08:46:22;;;;;;;14.25;11.65;;;;;;;;;;5110690;27;41638;-70
2023/08/24 08:48:51;;;;;;;17.77;10.55;;;;;;;;;;5110952;27;42268;-70
2023/08/24 08:51:19;;;;;;;19.50;11.13;;;;;;;;;;5108558;27;41658;-70
2023/08/24 08:53:47;;;;;;;18.73;12.48;;;;;;;;;;5106069;27;41636;-69
2023/08/24 08:56:16;;;;;;;15.90;11.68;;;;;;;;;;5106245;27;41416;-69
2023/08/24 08:58:46;;;;;;;12.73;11.02;;;;;;;;;;5106065;28;41994;-69
2023/08/24 09:01:14;;;;;;;17.52;11.50;;;;;;;;;;5114508;27;41602;-70
2023/08/24 09:03:42;;;;;;;18.30;12.35;;;;;;;;;;5105172;27;41747;-70
2023/08/24 09:06:10;;;;;;;20.65;11.90;;;;;;;;;;5107294;27;41877;-70
2023/08/24 09:08:38;;;;;;;13.98;11.95;;;;;;;;;;5109544;27;42722;-70
2023/08/24 09:11:08;;;;;;;16.83;12.13;;;;;;;;;;5107094;27;41713;-70
2023/08/24 09:13:37;;;;;;;17.70;12.68;;;;;;;;;;5105635;27;41542;-70
2023/08/24 09:16:06;;;;;;;19.02;12.27;;;;;;;;;;5106239;27;41394;-70
2023/08/24 09:18:35;;;;;;;17.08;11.40;;;;;;;;;;5107804;27;42776;-70
2023/08/24 09:21:08;;;;;;;16.40;11.20;;;;;;;;;;5108757;27;41929;-70
2023/08/24 09:23:36;;;;;;;16.90;12.05;;;;;;;;;;5109018;27;41778;-70
2023/08/24 09:26:04;;;;;;;20.92;12.48;;;;;;;;;;5113301;27;41393;-70
2023/08/24 09:28:32;;;;;;;16.83;10.82;;;;;;;;;;5113658;27;41912;-70
2023/08/24 09:31:03;;;;;;;15.35;11.90;;;;;;;;;;5113725;27;42113;-66
2023/08/24 09:33:31;;;;;;;16.95;12.00;;;;;;;;;;5110028;27;40886;-68
2023/08/24 09:36:01;;;;;;;13.20;10.35;;;;;;;;;;5110066;27;41779;-68
2023/08/24 09:38:29;;;;;;;15.32;12.70;;;;;;;;;;5105501;28;41904;-68
2023/08/24 09:40:57;;;;;;;13.35;10.65;;;;;;;;;;5114386;27;42231;-68
2023/08/24 09:43:25;;;;;;;15.07;11.55;;;;;;;;;;5113062;27;42362;-68
2023/08/24 09:45:53;;;;;;;18.23;13.05;;;;;;;;;;5115696;27;42039;-70
2023/08/24 09:48:23;;;;;;;15.70;12.00;;;;;;;;;;5109410;27;41783;-69
2023/08/24 09:50:54;;;;;;;16.50;11.77;;;;;;;;;;5109445;27;43734;-69
2023/08/24 09:53:22;;;;;;;14.98;11.20;;;;;;;;;;5109384;27;42298;-70
2023/08/24 09:55:54;;;;;;;14.30;9.77;;;;;;;;;;5109417;27;42046;-70
2023/08/24 09:58:22;;;;;;;13.52;10.05;;;;;;;;;;5108763;27;43986;-70
2023/08/24 10:00:50;;;;;;;16.50;11.45;;;;;;;;;;5109250;27;42064;-71
2023/08/24 10:03:20;;;;;;;15.95;11.50;;;;;;;;;;5110628;27;41592;-70
2023/08/24 10:05:51;;;;;;;12.98;10.88;;;;;;;;;;5111729;27;42646;-71
2023/08/24 10:08:28;;;;;;;14.85;10.02;;;;;;;;;;5109408;27;41053;-70
2023/08/24 10:10:58;;;;;;;10.88;9.23;;;;;;;;;;5109331;27;42086;-70
2023/08/24 10:13:29;;;;;;;12.23;9.40;;;;;;;;;;5108208;27;41007;-70
2023/08/24 10:15:57;;;;;;;14.60;9.88;;;;;;;;;;5109375;27;41369;-71
2023/08/24 10:18:26;;;;;;;13.38;10.85;;;;;;;;;;5109122;27;42281;-71
2023/08/24 10:20:55;;;;;;;13.57;10.07;;;;;;;;;;5107999;27;41361;-71
2023/08/24 10:23:23;;;;;;;18.98;10.50;;;;;;;;;;5108468;27;41416;-70
2023/08/24 10:25:52;;;;;;;12.85;10.75;;;;;;;;;;5109084;27;42753;-70
2023/08/24 10:28:20;;;;;;;17.65;11.60;;;;;;;;;;5107822;27;41689;-71
2023/08/24 10:30:48;;;;;;;16.02;10.10;;;;;;;;;;5108768;27;41666;-70
2023/08/24 10:33:16;;;;;;;13.57;9.52;;;;;;;;;;5107795;27;42045;-71
2023/08/24 10:35:46;;;;;;;11.75;9.25;;;;;;;;;;5108358;27;41670;-71
2023/08/24 10:38:29;;;;;;;12.43;8.90;;;;;;;;;;5109055;27;42405;-71
2023/08/24 10:41:02;;;;;;;12.05;8.57;;;;;;;;;;5112777;27;41894;-71
2023/08/24 10:43:30;;;;;;;12.75;8.00;;;;;;;;;;5107958;27;41733;-71
2023/08/24 10:45:58;;;;;;;12.15;7.85;;;;;;;;;;5108912;27;42115;-71
2023/08/24 10:48:26;;;;;;;11.98;7.57;;;;;;;;;;5107799;27;42157;-71
2023/08/24 10:51:09;;;;;;;14.18;7.47;;;;;;;;;;5109404;27;42643;-70
2023/08/24 10:53:41;;;;;;;12.98;7.00;;;;;;;;;;5108558;27;42277;-65
2023/08/24 10:56:12;;;;;;;10.25;6.10;;;;;;;;;;5118767;27;43074;-65
2023/08/24 10:58:40;;;;;;;11.07;6.10;;;;;;;;;;5108289;27;42611;-65
2023/08/24 11:01:08;;;;;;;9.70;6.45;;;;;;;;;;5107539;27;42327;-65
2023/08/24 11:03:36;;;;;;;11.82;6.32;;;;;;;;;;5106921;27;42063;-65
2023/08/24 11:06:17;;;;;;;8.90;5.88;;;;;;;;;;5107635;27;42100;-65
2023/08/24 11:08:47;;;;;;;8.35;6.10;;;;;;;;;;5106437;27;41301;-65
2023/08/24 11:11:21;;;;;;;8.73;5.57;;;;;;;;;;5107834;27;41384;-65
2023/08/24 11:14:13;;;;;;;8.48;5.80;;;;;;;;;;5107856;27;42296;-65
2023/08/24 11:16:43;;;;;;;11.95;6.38;;;;;;;;;;5089519;27;41466;-65
2023/08/24 11:19:11;;;;;;;6.22;5.53;;;;;;;;;;5106147;27;42242;-65
2023/08/24 11:21:39;;;;;;;9.27;5.28;;;;;;;;;;5105509;27;41212;-65
2023/08/24 11:24:09;;;;;;;8.00;5.25;;;;;;;;;;5105745;27;41876;-65
2023/08/24 11:26:40;;;;;;;5.85;5.25;;;;;;;;;;5112019;27;41990;-69
2023/08/24 11:29:08;;;;;;;9.57;5.00;;;;;;;;;;5115034;27;42754;-65
2023/08/24 11:31:36;;;;;;;6.20;5.00;;;;;;;;;;5108240;27;41854;-71
2023/08/24 11:34:08;;;;;;;11.35;5.22;;;;;;;;;;5111688;27;42113;-70
2023/08/24 11:36:42;;;;;;;11.20;5.20;;;;;;;;;;5110629;27;41520;-70
2023/08/24 11:39:16;;;;;;;8.73;5.40;;;;;;;;;;5108281;27;42172;-70
2023/08/24 11:41:45;;;;;;;6.43;5.00;;;;;;;;;;5110769;27;41090;-70
2023/08/24 11:44:13;;;;;;;9.70;5.47;;;;;;;;;;5107474;27;41638;-70
2023/08/24 11:46:56;;;;;;;8.75;5.28;;;;;;;;;;5107184;27;41962;-66
2023/08/24 11:49:24;;;;;;;9.98;5.63;;;;;;;;;;5107003;27;42573;-64
2023/08/24 11:51:52;;;;;;;10.20;4.97;;;;;;;;;;5106653;27;41523;-66
2023/08/24 11:54:22;;;;;;;10.55;5.32;;;;;;;;;;5104665;28;41676;-66
2023/08/24 11:56:50;;;;;;;10.80;5.93;;;;;;;;;;5106889;27;41890;-66
2023/08/24 11:59:17;;;;;;;8.07;5.82;;;;;;;;;;5107168;27;40323;-66
2023/08/24 12:01:46;;;;;;;10.82;6.13;;;;;;;;;;5108312;27;41804;-66
2023/08/24 12:04:14;;;;;;;9.05;6.90;;;;;;;;;;5107026;27;42323;-66
2023/08/24 12:06:42;;;;;;;9.27;6.28;;;;;;;;;;5105836;27;42077;-66
2023/08/24 12:09:10;;;;;;;9.07;6.53;;;;;;;;;;5106977;27;42340;-65
2023/08/24 12:11:39;;;;;;;10.65;6.50;;;;;;;;;;5106076;27;41617;-66
2023/08/24 12:14:09;;;;;;;10.18;5.80;;;;;;;;;;5107220;27;42823;-67
2023/08/24 12:16:38;;;;;;;8.70;6.25;;;;;;;;;;5106324;27;42398;-69
2023/08/24 12:19:08;;;;;;;13.48;5.43;;;;;;;;;;5105989;27;42680;-63
2023/08/24 12:21:36;;;;;;;8.00;6.18;;;;;;;;;;5106488;27;41737;-66
2023/08/24 12:24:05;;;;;;;10.55;5.53;;;;;;;;;;5106314;27;41634;-65
2023/08/24 12:26:34;;;;;;;11.32;5.65;;;;;;;;;;5105488;27;43155;-65
2023/08/24 12:29:05;;;;;;;9.10;5.70;;;;;;;;;;5106799;27;42261;-65
2023/08/24 12:31:33;;;;;;;10.43;5.85;;;;;;;;;;5105703;27;41154;-65
2023/08/24 12:34:02;;;;;;;9.75;6.47;;;;;;;;;;5105788;27;42086;-65
2023/08/24 12:36:30;;;;;;;8.48;6.25;;;;;;;;;;5105752;27;42454;-65
2023/08/24 12:38:58;;;;;;;14.48;6.55;;;;;;;;;;5106911;27;41080;-65
2023/08/24 12:41:26;;;;;;;10.98;6.45;;;;;;;;;;5109135;27;42298;-67
2023/08/24 12:43:54;;;;;;;12.98;6.55;;;;;;;;;;5108505;27;41327;-67
2023/08/24 12:46:24;;;;;;;7.22;5.90;;;;;;;;;;5106611;27;42236;-67
2023/08/24 12:48:52;;;;;;;10.07;5.97;;;;;;;;;;5105902;27;40753;-67
2023/08/24 12:51:24;;;;;;;8.77;5.72;;;;;;;;;;5106305;27;41910;-67
2023/08/24 12:53:52;;;;;;;10.30;6.30;;;;;;;;;;5109222;27;41910;-67
2023/08/24 12:56:20;;;;;;;10.32;6.57;;;;;;;;;;5109684;27;40392;-67
2023/08/24 12:58:48;;;;;;;10.18;6.05;;;;;;;;;;5109643;27;41237;-68
2023/08/24 13:01:16;;;;;;;15.43;7.00;;;;;;;;;;5108500;27;41756;-67
2023/08/24 13:03:46;;;;;;;7.20;5.78;;;;;;;;;;5109779;27;42084;-67
2023/08/24 13:06:16;;;;;;;9.38;5.80;;;;;;;;;;5109599;27;41625;-67
2023/08/24 13:08:47;;;;;;;9.77;5.82;;;;;;;;;;5113332;27;42326;-67
2023/08/24 13:11:15;;;;;;;7.65;5.70;;;;;;;;;;5112863;27;41763;-66
2023/08/24 13:13:45;;;;;;;8.93;5.72;;;;;;;;;;5109287;27;43011;-67
2023/08/24 13:16:13;;;;;;;11.57;6.40;;;;;;;;;;5108892;27;40949;-66
2023/08/24 13:18:41;;;;;;;12.07;5.57;;;;;;;;;;5109938;27;41245;-66
2023/08/24 13:21:10;;;;;;;7.30;5.45;;;;;;;;;;5112215;27;41619;-63
2023/08/24 13:23:38;;;;;;;12.40;5.63;;;;;;;;;;5104071;27;41280;-72
2023/08/24 13:26:06;;;;;;;11.18;5.57;;;;;;;;;;5111545;27;42659;-66
2023/08/24 13:28:34;;;;;;;10.10;6.45;;;;;;;;;;5108808;27;41170;-68
2023/08/24 13:31:03;;;;;;;10.77;5.65;;;;;;;;;;5110160;27;20224;-68
2023/08/24 13:33:31;;;;;;;13.57;6.30;;;;;;;;;;5110077;27;42121;-68
2023/08/24 13:36:01;;;;;;;11.75;6.95;;;;;;;;;;5109560;27;40948;-68
2023/08/24 13:38:31;;;;;;;11.02;6.55;;;;;;;;;;5108913;27;42667;-68
2023/08/24 13:40:59;;;;;;;9.90;6.10;;;;;;;;;;5110206;27;43051;-68
2023/08/24 13:43:27;;;;;;;11.27;6.10;;;;;;;;;;5108381;27;41250;-68
2023/08/24 13:45:55;;;;;;;13.15;6.82;;;;;;;;;;5109746;27;42588;-68
2023/08/24 13:48:24;;;;;;;11.13;6.78;;;;;;;;;;5109856;27;41830;-68
2023/08/24 13:50:52;;;;;;;9.90;6.95;;;;;;;;;;5109265;27;41884;-68
2023/08/24 13:53:20;;;;;;;8.80;5.95;;;;;;;;;;5109528;27;42366;-68
2023/08/24 13:55:50;;;;;;;10.38;6.35;;;;;;;;;;5109481;27;41107;-68
2023/08/24 13:58:18;;;;;;;12.10;6.30;;;;;;;;;;5108301;27;41526;-68
2023/08/24 14:00:45;;;;;;;13.50;6.90;;;;;;;;;;5109261;27;42686;-68
2023/08/24 14:03:13;;;;;;;9.10;6.60;;;;;;;;;;5109314;27;42321;-68
2023/08/24 14:05:42;;;;;;;10.90;7.00;;;;;;;;;;5108558;27;41419;-68
2023/08/24 14:08:10;;;;;;;9.05;7.00;;;;;;;;;;5109080;27;43402;-68
2023/08/24 14:10:38;;;;;;;14.63;7.65;;;;;;;;;;5108950;27;41342;-68
2023/08/24 14:13:07;;;;;;;13.70;7.57;;;;;;;;;;5108271;27;42071;-68
2023/08/24 14:15:35;;;;;;;11.57;6.90;;;;;;;;;;5108477;27;41265;-68
2023/08/24 14:18:03;;;;;;;16.23;7.35;;;;;;;;;;5109191;27;41513;-68
2023/08/24 14:20:31;;;;;;;11.95;7.18;;;;;;;;;;5107733;27;42829;-67
2023/08/24 14:22:59;;;;;;;9.65;6.68;;;;;;;;;;5108921;27;42216;-67
2023/08/24 14:25:27;;;;;;;11.07;7.32;;;;;;;;;;5107618;27;41621;-68
2023/08/24 14:27:55;;;;;;;14.75;7.70;;;;;;;;;;5108528;27;41752;-68
2023/08/24 14:30:36;;;;;;;11.60;7.38;;;;;;;;;;5108577;27;41455;-67
2023/08/24 14:33:04;;;;;;;9.15;7.00;;;;;;;;;;5108591;27;41662;-68
2023/08/24 14:35:32;;;;;;;11.35;6.97;;;;;;;;;;5108418;27;41237;-68
2023/08/24 14:38:01;;;;;;;11.35;7.25;;;;;;;;;;5108643;27;42202;-68
2023/08/24 14:40:29;;;;;;;11.95;6.40;;;;;;;;;;5107779;27;43684;-68
2023/08/24 14:42:57;;;;;;;11.25;6.53;;;;;;;;;;5109084;27;42222;-68